Time;durP1;ratioP1;P1;durP2;ratioP2;P2;SDS_P1;SDS_P2;PMS_P1;PMS_P2;Temp;Humidity;BMP_temperature;BMP_pressure;BME280_temperature;BME280_humidity;BME280_pressure;Samples;Min_cycle;Max_cycle;Signal;HPM_P1;HPM_P2
2022/04/03 00:00:56;;;;;;;4.03;3.03;;;;;;;;;;5058526;28;20032;-87
2022/04/03 00:03:21;;;;;;;3.25;2.80;;;;;;;;;;5057487;28;20119;-86
2022/04/03 00:05:46;;;;;;;4.18;3.05;;;;;;;;;;5074785;28;20114;-86
2022/04/03 00:08:12;;;;;;;4.57;3.17;;;;;;;;;;5041304;28;20122;-86
2022/04/03 00:10:39;;;;;;;3.20;2.90;;;;;;;;;;5074798;28;20028;-87
2022/04/03 00:13:06;;;;;;;7.25;3.47;;;;;;;;;;5078505;28;20066;-87
2022/04/03 00:15:32;;;;;;;3.65;3.22;;;;;;;;;;5061916;28;20109;-87
2022/04/03 00:17:57;;;;;;;4.47;3.30;;;;;;;;;;5079766;28;20024;-86
2022/04/03 00:20:23;;;;;;;4.25;3.20;;;;;;;;;;5061494;28;20032;-89
2022/04/03 00:22:49;;;;;;;4.65;3.10;;;;;;;;;;5058154;28;20111;-87
2022/04/03 00:25:16;;;;;;;3.53;2.85;;;;;;;;;;5075651;28;20130;-87
2022/04/03 00:27:41;;;;;;;4.00;2.60;;;;;;;;;;5058058;28;20027;-87
2022/04/03 00:30:07;;;;;;;4.05;3.10;;;;;;;;;;5058684;28;20032;-87
2022/04/03 00:32:33;;;;;;;3.75;2.85;;;;;;;;;;5093794;28;20118;-87
2022/04/03 00:34:58;;;;;;;4.85;3.20;;;;;;;;;;5093766;28;20107;-88
2022/04/03 00:37:24;;;;;;;3.58;2.90;;;;;;;;;;5094064;28;20036;-88
2022/04/03 00:39:49;;;;;;;3.65;2.63;;;;;;;;;;5075989;28;20039;-88
2022/04/03 00:42:14;;;;;;;3.35;2.70;;;;;;;;;;5093884;28;20032;-88
2022/04/03 00:44:40;;;;;;;3.72;2.65;;;;;;;;;;5074742;28;20444;-88
2022/04/03 00:47:06;;;;;;;3.92;2.78;;;;;;;;;;5074753;28;20035;-88
2022/04/03 00:49:32;;;;;;;5.13;3.15;;;;;;;;;;5093074;28;20101;-88
2022/04/03 00:51:58;;;;;;;3.15;2.70;;;;;;;;;;5041332;28;20034;-88
2022/04/03 00:54:24;;;;;;;3.78;2.85;;;;;;;;;;5057693;28;20035;-89
2022/04/03 00:56:49;;;;;;;3.53;2.50;;;;;;;;;;5057683;28;20035;-88
2022/04/03 00:59:15;;;;;;;3.67;3.00;;;;;;;;;;5074555;28;20120;-88
2022/04/03 01:01:41;;;;;;;3.95;2.65;;;;;;;;;;5092400;28;20081;-88
2022/04/03 01:04:07;;;;;;;3.97;2.80;;;;;;;;;;5074847;28;20031;-88
2022/04/03 01:06:33;;;;;;;3.22;2.65;;;;;;;;;;5074736;28;20122;-88
2022/04/03 01:08:59;;;;;;;3.03;2.70;;;;;;;;;;5074816;28;20024;-88
2022/04/03 01:11:25;;;;;;;3.80;3.00;;;;;;;;;;5057326;28;20451;-87
2022/04/03 01:13:51;;;;;;;4.20;3.00;;;;;;;;;;5074085;28;20044;-87
2022/04/03 01:16:17;;;;;;;4.20;2.78;;;;;;;;;;5097252;28;20109;-87
2022/04/03 01:18:43;;;;;;;4.53;3.03;;;;;;;;;;5096781;28;20515;-88
2022/04/03 01:21:08;;;;;;;3.67;3.00;;;;;;;;;;5061497;28;20020;-87
2022/04/03 01:23:34;;;;;;;3.25;2.65;;;;;;;;;;5096334;28;20149;-87
2022/04/03 01:25:59;;;;;;;3.65;2.90;;;;;;;;;;5078079;28;20169;-87
2022/04/03 01:28:25;;;;;;;3.28;2.85;;;;;;;;;;5078296;28;20032;-87
2022/04/03 01:30:51;;;;;;;3.85;2.92;;;;;;;;;;5078282;28;20144;-88
2022/04/03 01:33:17;;;;;;;3.78;2.72;;;;;;;;;;5077964;28;20585;-88
2022/04/03 01:35:43;;;;;;;3.90;3.03;;;;;;;;;;5078018;28;20052;-88
2022/04/03 01:38:08;;;;;;;4.80;3.45;;;;;;;;;;5044445;28;20038;-87
2022/04/03 01:40:35;;;;;;;5.20;3.45;;;;;;;;;;5060928;28;20398;-88
2022/04/03 01:43:04;;;;;;;4.35;3.10;;;;;;;;;;5077951;28;20016;-88
2022/04/03 01:45:31;;;;;;;5.43;3.47;;;;;;;;;;5064810;28;20028;-89
2022/04/03 01:47:56;;;;;;;3.97;3.30;;;;;;;;;;5079991;28;20089;-88
2022/04/03 01:50:22;;;;;;;3.17;2.60;;;;;;;;;;5066397;28;20024;-88
2022/04/03 01:52:47;;;;;;;3.83;2.85;;;;;;;;;;5061913;28;20046;-88
2022/04/03 01:55:13;;;;;;;3.72;2.80;;;;;;;;;;5095769;28;20127;-87
2022/04/03 01:57:38;;;;;;;4.50;3.15;;;;;;;;;;5077216;28;20035;-88
2022/04/03 02:00:09;;;;;;;5.43;3.35;;;;;;;;;;5077725;28;20504;-88
2022/04/03 02:02:35;;;;;;;5.40;2.95;;;;;;;;;;5095318;28;20043;-88
2022/04/03 02:05:01;;;;;;;4.45;3.17;;;;;;;;;;5077199;28;20448;-86
2022/04/03 02:07:28;;;;;;;4.93;3.15;;;;;;;;;;5095288;28;20035;-88
2022/04/03 02:09:54;;;;;;;4.13;2.95;;;;;;;;;;5061002;28;20036;-86
2022/04/03 02:12:19;;;;;;;3.45;2.75;;;;;;;;;;5077478;28;20127;-87
2022/04/03 02:14:45;;;;;;;5.05;3.08;;;;;;;;;;5077857;28;20064;-86
2022/04/03 02:17:10;;;;;;;3.50;2.63;;;;;;;;;;5060861;28;20032;-86
2022/04/03 02:19:36;;;;;;;4.47;2.70;;;;;;;;;;5077928;28;20051;-87
2022/04/03 02:22:01;;;;;;;3.45;2.78;;;;;;;;;;5097035;28;20035;-87
2022/04/03 02:24:27;;;;;;;6.28;2.97;;;;;;;;;;5077707;28;20047;-87
2022/04/03 02:26:52;;;;;;;4.45;2.78;;;;;;;;;;5095077;28;20356;-88
2022/04/03 02:29:18;;;;;;;3.63;2.60;;;;;;;;;;5060611;28;20100;-87
2022/04/03 02:31:43;;;;;;;2.83;2.53;;;;;;;;;;5077427;28;20073;-87
2022/04/03 02:34:08;;;;;;;3.53;2.67;;;;;;;;;;5076938;28;20363;-88
2022/04/03 02:36:35;;;;;;;4.90;2.50;;;;;;;;;;5077026;28;20032;-87
2022/04/03 02:39:00;;;;;;;4.93;2.65;;;;;;;;;;5076723;28;20264;-88
2022/04/03 02:41:27;;;;;;;4.53;2.58;;;;;;;;;;5060052;28;20399;-88
2022/04/03 02:43:53;;;;;;;4.30;3.13;;;;;;;;;;5076734;28;20395;-87
2022/04/03 02:46:18;;;;;;;4.32;2.30;;;;;;;;;;5059636;28;20019;-87
2022/04/03 02:48:43;;;;;;;3.30;2.78;;;;;;;;;;5076686;28;20032;-86
2022/04/03 02:51:09;;;;;;;3.17;2.72;;;;;;;;;;5043264;28;20505;-86
2022/04/03 02:53:34;;;;;;;4.13;2.65;;;;;;;;;;5094878;28;20028;-86
2022/04/03 02:55:59;;;;;;;5.00;2.85;;;;;;;;;;5077179;28;20483;-87
2022/04/03 02:58:25;;;;;;;3.03;2.55;;;;;;;;;;5060514;28;20028;-87
2022/04/03 03:00:50;;;;;;;4.03;2.55;;;;;;;;;;5077151;28;20502;-87
2022/04/03 03:03:16;;;;;;;4.20;2.80;;;;;;;;;;5060260;28;20444;-85
2022/04/03 03:05:42;;;;;;;3.25;2.30;;;;;;;;;;5060808;28;20040;-86
2022/04/03 03:08:08;;;;;;;4.85;2.78;;;;;;;;;;5076960;28;20045;-86
2022/04/03 03:10:33;;;;;;;2.80;2.45;;;;;;;;;;5095967;28;20134;-86
2022/04/03 03:12:59;;;;;;;2.78;2.25;;;;;;;;;;5096417;28;20056;-87
2022/04/03 03:15:24;;;;;;;3.40;2.33;;;;;;;;;;5095154;28;20032;-86
2022/04/03 03:17:50;;;;;;;3.65;2.80;;;;;;;;;;5076285;28;20356;-85
2022/04/03 03:20:16;;;;;;;2.20;2.00;;;;;;;;;;5076369;28;20020;-87
2022/04/03 03:22:42;;;;;;;3.22;2.20;;;;;;;;;;5076483;28;20160;-86
2022/04/03 03:25:08;;;;;;;4.10;2.53;;;;;;;;;;5076156;28;20104;-86
2022/04/03 03:27:34;;;;;;;2.15;1.90;;;;;;;;;;5075873;28;20039;-88
2022/04/03 03:30:00;;;;;;;2.88;2.25;;;;;;;;;;5093869;28;20097;-88
2022/04/03 03:32:25;;;;;;;2.78;2.20;;;;;;;;;;5094252;28;20020;-87
2022/04/03 03:34:51;;;;;;;3.63;2.33;;;;;;;;;;5075468;28;20032;-87
2022/04/03 03:37:17;;;;;;;7.47;2.30;;;;;;;;;;5058527;28;20047;-87
2022/04/03 03:39:43;;;;;;;2.58;2.25;;;;;;;;;;5093727;28;20024;-87
2022/04/03 03:42:08;;;;;;;2.72;2.17;;;;;;;;;;5058820;28;20036;-87
2022/04/03 03:44:34;;;;;;;3.10;2.30;;;;;;;;;;5075291;28;20473;-87
2022/04/03 03:46:59;;;;;;;4.30;2.38;;;;;;;;;;5058475;28;20055;-86
2022/04/03 03:49:26;;;;;;;3.08;2.20;;;;;;;;;;5093776;28;20078;-88
2022/04/03 03:51:52;;;;;;;2.33;2.13;;;;;;;;;;5075307;28;20024;-87
2022/04/03 03:54:17;;;;;;;3.45;2.03;;;;;;;;;;5075136;28;20047;-88
2022/04/03 03:56:42;;;;;;;2.88;2.05;;;;;;;;;;5058489;28;20372;-86
2022/04/03 03:59:08;;;;;;;2.20;1.85;;;;;;;;;;5075248;28;20066;-86
2022/04/03 04:01:34;;;;;;;3.35;2.33;;;;;;;;;;5058342;28;20414;-85
2022/04/03 04:04:00;;;;;;;3.38;2.10;;;;;;;;;;5058733;28;20020;-87
2022/04/03 04:06:26;;;;;;;5.22;2.30;;;;;;;;;;5058575;28;20470;-86
2022/04/03 04:08:51;;;;;;;2.38;1.90;;;;;;;;;;5075268;28;20028;-87
2022/04/03 04:11:17;;;;;;;3.22;1.95;;;;;;;;;;5093860;28;20103;-88
2022/04/03 04:13:42;;;;;;;3.17;1.90;;;;;;;;;;5054973;28;20119;-88
2022/04/03 04:16:09;;;;;;;2.88;1.90;;;;;;;;;;5073163;28;20094;-87
2022/04/03 04:18:36;;;;;;;2.35;2.00;;;;;;;;;;5072972;28;20036;-87
2022/04/03 04:21:02;;;;;;;4.40;2.05;;;;;;;;;;5071579;28;20372;-86
2022/04/03 04:23:27;;;;;;;2.97;2.17;;;;;;;;;;5071291;28;20063;-86
2022/04/03 04:25:53;;;;;;;3.03;1.92;;;;;;;;;;5071191;28;20033;-87
2022/04/03 04:28:19;;;;;;;3.15;1.73;;;;;;;;;;5054730;28;20119;-86
2022/04/03 04:30:44;;;;;;;2.63;1.70;;;;;;;;;;5071492;28;20510;-86
2022/04/03 04:33:10;;;;;;;2.30;1.98;;;;;;;;;;5072449;28;20028;-86
2022/04/03 04:35:35;;;;;;;4.13;1.90;;;;;;;;;;5072782;28;20085;-86
2022/04/03 04:38:02;;;;;;;3.38;1.90;;;;;;;;;;5055679;28;20559;-86
2022/04/03 04:40:28;;;;;;;2.58;1.63;;;;;;;;;;5055707;28;20036;-87
2022/04/03 04:42:55;;;;;;;1.92;1.55;;;;;;;;;;5072410;28;20384;-87
2022/04/03 04:45:21;;;;;;;3.53;1.65;;;;;;;;;;5073494;28;20033;-87
2022/04/03 04:47:48;;;;;;;3.50;2.13;;;;;;;;;;5055850;28;20596;-88
2022/04/03 04:50:14;;;;;;;5.40;1.65;;;;;;;;;;5071866;28;20028;-88
2022/04/03 04:52:40;;;;;;;2.60;1.85;;;;;;;;;;5055725;28;20021;-87
2022/04/03 04:55:06;;;;;;;2.90;1.88;;;;;;;;;;5072395;28;20033;-89
2022/04/03 04:57:32;;;;;;;1.98;1.70;;;;;;;;;;5059001;28;20025;-88
2022/04/03 04:59:58;;;;;;;1.83;1.52;;;;;;;;;;5076666;28;20036;-87
2022/04/03 05:02:24;;;;;;;1.85;1.60;;;;;;;;;;5076017;28;20464;-87
2022/04/03 05:04:50;;;;;;;1.55;1.40;;;;;;;;;;5075062;28;20048;-87
2022/04/03 05:07:16;;;;;;;2.83;1.70;;;;;;;;;;5075874;28;20029;-87
2022/04/03 05:09:42;;;;;;;2.58;1.70;;;;;;;;;;5074909;28;20097;-87
2022/04/03 05:12:08;;;;;;;3.38;1.60;;;;;;;;;;5080794;28;20058;-87
2022/04/03 05:14:33;;;;;;;2.35;1.73;;;;;;;;;;5077797;28;20131;-87
2022/04/03 05:16:59;;;;;;;1.40;1.30;;;;;;;;;;5078257;28;20024;-87
2022/04/03 05:19:24;;;;;;;2.40;1.90;;;;;;;;;;5078733;28;20099;-88
2022/04/03 05:21:50;;;;;;;2.08;1.55;;;;;;;;;;5078623;28;20028;-88
2022/04/03 05:24:16;;;;;;;2.13;1.70;;;;;;;;;;5078624;28;20020;-88
2022/04/03 05:26:41;;;;;;;2.55;1.50;;;;;;;;;;5061875;28;20410;-87
2022/04/03 05:29:07;;;;;;;3.63;1.83;;;;;;;;;;5061718;28;20061;-88
2022/04/03 05:31:33;;;;;;;2.15;1.52;;;;;;;;;;5096364;28;20031;-85
2022/04/03 05:33:58;;;;;;;2.75;1.55;;;;;;;;;;5062039;28;20150;-87
2022/04/03 05:36:24;;;;;;;2.00;1.55;;;;;;;;;;5078579;28;20035;-87
2022/04/03 05:38:50;;;;;;;6.10;1.50;;;;;;;;;;5078205;28;20032;-87
2022/04/03 05:41:15;;;;;;;2.03;1.60;;;;;;;;;;5061505;28;20475;-87
2022/04/03 05:43:41;;;;;;;2.00;1.42;;;;;;;;;;5096440;28;20028;-87
2022/04/03 05:46:07;;;;;;;3.25;1.70;;;;;;;;;;5061701;28;20028;-87
2022/04/03 05:48:32;;;;;;;2.30;1.67;;;;;;;;;;5096603;28;20089;-88
2022/04/03 05:50:58;;;;;;;3.50;1.70;;;;;;;;;;5079660;28;20024;-87
2022/04/03 05:53:23;;;;;;;2.78;1.80;;;;;;;;;;5045834;28;20063;-88
2022/04/03 05:55:49;;;;;;;2.17;1.60;;;;;;;;;;5079035;28;20382;-89
2022/04/03 05:58:14;;;;;;;2.20;1.48;;;;;;;;;;5078169;28;20032;-83
2022/04/03 06:00:40;;;;;;;2.88;1.70;;;;;;;;;;5095721;28;20020;-83
2022/04/03 06:03:06;;;;;;;3.83;1.77;;;;;;;;;;5063834;28;20035;-81
2022/04/03 06:05:34;;;;;;;3.65;1.30;;;;;;;;;;5063932;28;20028;-83
2022/04/03 06:08:00;;;;;;;8.35;1.80;;;;;;;;;;5081355;28;20059;-83
2022/04/03 06:10:27;;;;;;;3.90;1.60;;;;;;;;;;5065083;28;20127;-83
2022/04/03 06:12:54;;;;;;;6.68;1.98;;;;;;;;;;5063892;28;20048;-85
2022/04/03 06:15:20;;;;;;;4.80;1.85;;;;;;;;;;5099066;28;20039;-81
2022/04/03 06:17:50;;;;;;;1.85;1.60;;;;;;;;;;5081288;28;20036;-82
2022/04/03 06:20:15;;;;;;;6.32;2.05;;;;;;;;;;5063873;28;20035;-82
2022/04/03 06:22:41;;;;;;;9.13;2.72;;;;;;;;;;5064280;28;20028;-81
2022/04/03 06:25:07;;;;;;;13.95;2.20;;;;;;;;;;5098264;28;20016;-82
2022/04/03 06:27:33;;;;;;;14.10;1.90;;;;;;;;;;5098264;28;20058;-82
2022/04/03 06:29:58;;;;;;;5.65;1.98;;;;;;;;;;5098871;28;20474;-83
2022/04/03 06:32:24;;;;;;;4.80;2.20;;;;;;;;;;5080134;28;20046;-83
2022/04/03 06:34:49;;;;;;;5.95;2.00;;;;;;;;;;5080315;28;20114;-82
2022/04/03 06:37:15;;;;;;;5.53;1.73;;;;;;;;;;5080147;28;20047;-82
2022/04/03 06:39:40;;;;;;;5.03;1.90;;;;;;;;;;5098908;28;20028;-82
2022/04/03 06:42:06;;;;;;;10.23;2.10;;;;;;;;;;5098458;28;20058;-82
2022/04/03 06:44:31;;;;;;;2.58;1.60;;;;;;;;;;5064478;28;20020;-82
2022/04/03 06:46:57;;;;;;;4.82;1.60;;;;;;;;;;5080575;28;20032;-81
2022/04/03 06:49:22;;;;;;;3.38;1.60;;;;;;;;;;5098493;28;20390;-79
2022/04/03 06:51:48;;;;;;;2.38;1.63;;;;;;;;;;5063182;28;20031;-81
2022/04/03 06:54:13;;;;;;;3.83;1.73;;;;;;;;;;5098349;28;20024;-83
2022/04/03 06:56:38;;;;;;;2.85;1.67;;;;;;;;;;5099395;28;20031;-82
2022/04/03 06:59:04;;;;;;;3.80;1.65;;;;;;;;;;5063850;28;20086;-83
2022/04/03 07:01:30;;;;;;;2.47;1.63;;;;;;;;;;5098166;28;20036;-82
2022/04/03 07:03:55;;;;;;;3.08;1.70;;;;;;;;;;5079834;28;20027;-82
2022/04/03 07:06:20;;;;;;;3.30;1.77;;;;;;;;;;5080320;28;20036;-86
2022/04/03 07:08:48;;;;;;;1.80;1.38;;;;;;;;;;5080213;28;20032;-84
2022/04/03 07:11:14;;;;;;;2.17;1.60;;;;;;;;;;5079960;28;20181;-84
2022/04/03 07:13:40;;;;;;;7.43;1.65;;;;;;;;;;5079538;28;20497;-84
2022/04/03 07:16:05;;;;;;;4.82;1.75;;;;;;;;;;5080147;28;20387;-85
2022/04/03 07:18:31;;;;;;;11.20;2.60;;;;;;;;;;5081181;28;20032;-85
2022/04/03 07:20:56;;;;;;;6.15;1.92;;;;;;;;;;5063366;28;20059;-85
2022/04/03 07:23:24;;;;;;;11.43;2.53;;;;;;;;;;5079831;28;20542;-85
2022/04/03 07:25:49;;;;;;;7.22;2.28;;;;;;;;;;5078482;28;20097;-85
2022/04/03 07:28:15;;;;;;;8.52;2.15;;;;;;;;;;5096146;28;20032;-86
2022/04/03 07:30:40;;;;;;;9.40;2.08;;;;;;;;;;5079440;28;20107;-86
2022/04/03 07:33:06;;;;;;;7.68;2.28;;;;;;;;;;5078074;28;20028;-86
2022/04/03 07:35:31;;;;;;;8.07;2.53;;;;;;;;;;5095458;28;20032;-86
2022/04/03 07:37:57;;;;;;;6.78;1.92;;;;;;;;;;5078578;28;20024;-86
2022/04/03 07:40:22;;;;;;;4.97;1.77;;;;;;;;;;5062281;28;20036;-86
2022/04/03 07:42:49;;;;;;;2.85;1.95;;;;;;;;;;5079428;28;20032;-91
2022/04/03 07:45:15;;;;;;;11.02;2.78;;;;;;;;;;5079940;28;20036;-86
2022/04/03 07:47:45;;;;;;;6.35;2.13;;;;;;;;;;5079129;28;20034;-86
2022/04/03 07:50:11;;;;;;;3.60;1.73;;;;;;;;;;5097898;28;20027;-86
2022/04/03 07:52:36;;;;;;;5.47;1.63;;;;;;;;;;5099117;28;20110;-86
2022/04/03 07:55:02;;;;;;;3.78;1.67;;;;;;;;;;5077366;28;20081;-86
2022/04/03 07:57:27;;;;;;;5.28;1.98;;;;;;;;;;5095635;28;20032;-86
2022/04/03 07:59:53;;;;;;;2.78;1.63;;;;;;;;;;5077477;28;20020;-86
2022/04/03 08:02:18;;;;;;;3.35;1.85;;;;;;;;;;5077386;28;20497;-86
2022/04/03 08:04:44;;;;;;;5.30;1.92;;;;;;;;;;5078121;28;20118;-86
2022/04/03 08:07:09;;;;;;;7.43;1.60;;;;;;;;;;5076870;28;20039;-86
2022/04/03 08:09:34;;;;;;;3.72;1.83;;;;;;;;;;5076571;28;20466;-87
2022/04/03 08:12:00;;;;;;;3.92;1.65;;;;;;;;;;5059866;28;20038;-87
2022/04/03 08:14:27;;;;;;;8.85;1.95;;;;;;;;;;5060973;28;20505;-88
2022/04/03 08:16:53;;;;;;;4.32;1.92;;;;;;;;;;5094804;28;20079;-87
2022/04/03 08:19:18;;;;;;;8.55;2.50;;;;;;;;;;5076630;28;20025;-84
2022/04/03 08:21:44;;;;;;;7.28;1.60;;;;;;;;;;5094711;28;20043;-84
2022/04/03 08:24:09;;;;;;;6.72;1.83;;;;;;;;;;5059314;28;20028;-90
2022/04/03 08:26:35;;;;;;;5.63;1.45;;;;;;;;;;5076445;28;20127;-88
2022/04/03 08:29:00;;;;;;;6.30;2.00;;;;;;;;;;5076428;28;20050;-86
2022/04/03 08:31:27;;;;;;;5.78;1.45;;;;;;;;;;5061561;28;20059;-84
2022/04/03 08:33:53;;;;;;;8.63;1.48;;;;;;;;;;5097150;28;20024;-86
2022/04/03 08:36:19;;;;;;;7.25;1.60;;;;;;;;;;5076982;28;20027;-83
2022/04/03 08:38:45;;;;;;;3.22;1.50;;;;;;;;;;5077219;28;20054;-85
2022/04/03 08:41:11;;;;;;;9.73;2.42;;;;;;;;;;5077983;28;20474;-86
2022/04/03 08:43:38;;;;;;;5.07;1.58;;;;;;;;;;5082910;28;20028;-88
2022/04/03 08:46:06;;;;;;;3.38;1.70;;;;;;;;;;5061743;28;20024;-85
2022/04/03 08:48:32;;;;;;;2.53;1.17;;;;;;;;;;5095783;28;20046;-87
2022/04/03 08:51:01;;;;;;;4.68;1.35;;;;;;;;;;5063035;28;20028;-82
2022/04/03 08:53:29;;;;;;;5.00;1.30;;;;;;;;;;5065533;28;20095;-93
2022/04/03 08:55:54;;;;;;;10.10;1.90;;;;;;;;;;5063490;28;20035;-87
2022/04/03 08:58:20;;;;;;;7.15;1.52;;;;;;;;;;5049671;28;20031;-87
2022/04/03 09:00:46;;;;;;;12.80;1.77;;;;;;;;;;5062394;28;20038;-85
2022/04/03 09:03:14;;;;;;;6.82;2.35;;;;;;;;;;5088121;28;20044;-90
2022/04/03 09:05:41;;;;;;;5.22;1.55;;;;;;;;;;5107313;28;20028;-89
2022/04/03 09:08:08;;;;;;;13.85;1.50;;;;;;;;;;5077114;28;20013;-90
2022/04/03 09:10:34;;;;;;;6.68;1.38;;;;;;;;;;5075548;28;20202;-86
2022/04/03 09:13:00;;;;;;;6.13;1.38;;;;;;;;;;5087293;28;20494;-90
2022/04/03 09:15:27;;;;;;;13.25;1.98;;;;;;;;;;5091800;28;20370;-91
2022/04/03 09:17:57;;;;;;;4.63;1.35;;;;;;;;;;5077727;28;20052;-88
2022/04/03 09:20:33;;;;;;;14.93;1.33;;;;;;;;;;5098318;28;20051;-90
2022/04/03 09:23:01;;;;;;;6.78;1.38;;;;;;;;;;5079277;28;20035;-90
2022/04/03 09:25:34;;;;;;;3.28;1.13;;;;;;;;;;5102019;28;20039;-89
2022/04/03 09:28:05;;;;;;;3.50;1.50;;;;;;;;;;5067999;28;20028;-89
2022/04/03 09:30:38;;;;;;;6.32;1.83;;;;;;;;;;5105617;28;20058;-88
2022/04/03 09:33:06;;;;;;;3.83;1.25;;;;;;;;;;5082866;28;20110;-88
2022/04/03 09:35:51;;;;;;;11.25;1.55;;;;;;;;;;5079892;28;20125;-88
2022/04/03 09:38:18;;;;;;;5.07;1.00;;;;;;;;;;5082758;28;20482;-93
2022/04/03 09:40:48;;;;;;;2.53;1.30;;;;;;;;;;5049958;28;20042;-91
2022/04/03 09:43:25;;;;;;;6.38;1.50;;;;;;;;;;5067127;28;20020;-86
2022/04/03 09:45:56;;;;;;;11.23;1.27;;;;;;;;;;5098743;28;20020;-84
2022/04/03 09:48:25;;;;;;;8.75;1.35;;;;;;;;;;5063675;28;20077;-85
2022/04/03 09:51:03;;;;;;;3.13;0.90;;;;;;;;;;5097728;28;20081;-83
2022/04/03 09:53:39;;;;;;;7.53;1.38;;;;;;;;;;5081049;28;20027;-84
2022/04/03 09:56:04;;;;;;;5.25;1.83;;;;;;;;;;5067449;28;20032;-84
2022/04/03 09:58:30;;;;;;;2.15;1.00;;;;;;;;;;5099528;28;20032;-86
2022/04/03 10:00:55;;;;;;;8.93;1.35;;;;;;;;;;5101112;28;20390;-84
2022/04/03 10:03:23;;;;;;;6.97;1.15;;;;;;;;;;5098863;28;20383;-85
2022/04/03 10:05:49;;;;;;;1.77;1.00;;;;;;;;;;5099354;28;20421;-86
2022/04/03 10:08:15;;;;;;;7.93;1.42;;;;;;;;;;5098808;28;20085;-87
2022/04/03 10:10:40;;;;;;;9.23;1.55;;;;;;;;;;5099423;28;20032;-86
2022/04/03 10:13:06;;;;;;;30.55;1.42;;;;;;;;;;5075385;28;20159;-86
2022/04/03 10:15:32;;;;;;;7.03;1.70;;;;;;;;;;5078247;28;20482;-86
2022/04/03 10:17:58;;;;;;;6.95;1.38;;;;;;;;;;5060991;28;20031;-85
2022/04/03 10:20:30;;;;;;;4.57;1.15;;;;;;;;;;5078936;28;20032;-87
2022/04/03 10:23:04;;;;;;;7.83;1.30;;;;;;;;;;5078139;28;20078;-85
2022/04/03 10:25:32;;;;;;;4.78;1.10;;;;;;;;;;5080417;28;20511;-85
2022/04/03 10:28:01;;;;;;;5.15;1.40;;;;;;;;;;5078098;28;20094;-85
2022/04/03 10:30:43;;;;;;;4.50;1.35;;;;;;;;;;5075508;28;20025;-84
2022/04/03 10:33:19;;;;;;;8.70;1.38;;;;;;;;;;5076630;28;20028;-83
2022/04/03 10:36:05;;;;;;;1.70;0.80;;;;;;;;;;5078112;28;20040;-86
2022/04/03 10:38:58;;;;;;;4.63;1.80;;;;;;;;;;5062124;28;20185;-84
2022/04/03 10:41:35;;;;;;;4.82;1.27;;;;;;;;;;5077183;28;20027;-86
2022/04/03 10:44:22;;;;;;;3.85;1.60;;;;;;;;;;5076311;28;20476;-85
2022/04/03 10:47:05;;;;;;;5.68;1.55;;;;;;;;;;5079273;28;20063;-87
2022/04/03 10:49:37;;;;;;;2.38;1.30;;;;;;;;;;5078965;28;20035;-86
2022/04/03 10:52:03;;;;;;;3.38;1.35;;;;;;;;;;5076131;28;20123;-86
2022/04/03 10:54:38;;;;;;;3.20;1.00;;;;;;;;;;5058768;28;20130;-88
2022/04/03 10:57:42;;;;;;;3.13;1.77;;;;;;;;;;5061518;28;20025;-86
2022/04/03 11:00:14;;;;;;;2.50;0.63;;;;;;;;;;5061470;28;20055;-89
2022/04/03 11:02:58;;;;;;;2.55;1.10;;;;;;;;;;5077512;28;20254;-89
2022/04/03 11:05:26;;;;;;;;;;;;;;;;;;5078021;28;20036;-86
2022/04/03 11:07:54;;;;;;;4.72;1.17;;;;;;;;;;5077621;28;20375;-85
2022/04/03 11:10:49;;;;;;;0.93;0.93;;;;;;;;;;5076427;28;20024;-86
2022/04/03 11:13:15;;;;;;;;;;;;;;;;;;5061640;28;20198;-90
2022/04/03 11:15:45;;;;;;;7.10;1.00;;;;;;;;;;5078854;28;19988;-85
2022/04/03 11:18:29;;;;;;;3.25;1.17;;;;;;;;;;5078386;28;20059;-82
2022/04/03 11:21:16;;;;;;;2.10;0.75;;;;;;;;;;5058430;28;20028;-82
2022/04/03 11:23:57;;;;;;;2.05;1.00;;;;;;;;;;5076316;28;20028;-83
2022/04/03 11:26:23;;;;;;;1.15;1.00;;;;;;;;;;5075904;28;20058;-85
2022/04/03 11:28:48;;;;;;;4.03;1.52;;;;;;;;;;5056676;28;20060;-84
2022/04/03 11:31:14;;;;;;;10.25;1.45;;;;;;;;;;5073773;28;20199;-84
2022/04/03 11:33:44;;;;;;;3.50;1.20;;;;;;;;;;5078287;28;20020;-86
2022/04/03 11:36:15;;;;;;;1.80;0.82;;;;;;;;;;5074627;28;20032;-84
2022/04/03 11:38:44;;;;;;;2.80;0.95;;;;;;;;;;5057997;28;20035;-89
2022/04/03 11:41:11;;;;;;;3.17;1.02;;;;;;;;;;5059069;28;20501;-89
2022/04/03 11:43:37;;;;;;;3.97;0.98;;;;;;;;;;5075433;28;20024;-88
2022/04/03 11:46:03;;;;;;;0.82;0.73;;;;;;;;;;5074179;28;20025;-87
2022/04/03 11:48:34;;;;;;;7.25;1.48;;;;;;;;;;5075089;28;20058;-87
2022/04/03 11:51:11;;;;;;;3.10;1.20;;;;;;;;;;5073576;28;20031;-83
2022/04/03 11:53:38;;;;;;;3.80;1.00;;;;;;;;;;5073894;28;20017;-87
2022/04/03 11:56:16;;;;;;;5.65;2.50;;;;;;;;;;5057703;28;20394;-86
2022/04/03 11:58:44;;;;;;;4.38;1.42;;;;;;;;;;5074158;28;20047;-85
2022/04/03 12:01:10;;;;;;;6.70;1.58;;;;;;;;;;5073965;28;20024;-85
2022/04/03 12:03:36;;;;;;;2.58;1.52;;;;;;;;;;5072883;28;20120;-85
2022/04/03 12:06:18;;;;;;;3.75;1.50;;;;;;;;;;5058068;28;20095;-84
2022/04/03 12:08:49;;;;;;;4.75;1.60;;;;;;;;;;5079406;28;20032;-86
2022/04/03 12:11:19;;;;;;;3.08;1.08;;;;;;;;;;5081039;28;20033;-89
2022/04/03 12:13:45;;;;;;;2.47;1.52;;;;;;;;;;5075753;28;20071;-89
2022/04/03 12:16:16;;;;;;;3.35;1.33;;;;;;;;;;5059698;28;20082;-88
2022/04/03 12:18:49;;;;;;;3.78;1.42;;;;;;;;;;5058180;28;20025;-89
2022/04/03 12:21:14;;;;;;;6.40;1.60;;;;;;;;;;5060167;28;20454;-87
2022/04/03 12:24:00;;;;;;;4.78;1.73;;;;;;;;;;5058409;28;20085;-87
2022/04/03 12:26:26;;;;;;;4.95;1.85;;;;;;;;;;5072779;28;20047;-88
2022/04/03 12:28:51;;;;;;;6.35;1.42;;;;;;;;;;5074483;28;20028;-88
2022/04/03 12:31:16;;;;;;;2.67;1.60;;;;;;;;;;5056102;28;20035;-86
2022/04/03 12:33:42;;;;;;;8.60;1.92;;;;;;;;;;5072785;28;20116;-88
2022/04/03 12:36:07;;;;;;;4.30;1.65;;;;;;;;;;5057280;28;20105;-86
2022/04/03 12:38:33;;;;;;;4.90;1.73;;;;;;;;;;5074643;28;20037;-86
2022/04/03 12:41:00;;;;;;;4.68;1.70;;;;;;;;;;5039979;28;20479;-85
2022/04/03 12:43:25;;;;;;;2.05;1.42;;;;;;;;;;5055547;28;20356;-86
2022/04/03 12:45:57;;;;;;;4.07;1.98;;;;;;;;;;5073159;28;20028;-86
2022/04/03 12:48:22;;;;;;;3.30;1.60;;;;;;;;;;5072800;28;20487;-86
2022/04/03 12:50:48;;;;;;;3.47;1.52;;;;;;;;;;5055900;28;20074;-88
2022/04/03 12:53:16;;;;;;;3.00;1.40;;;;;;;;;;5072232;28;20060;-85
2022/04/03 12:55:49;;;;;;;4.72;1.38;;;;;;;;;;5074740;28;20024;-85
2022/04/03 12:58:26;;;;;;;6.57;1.60;;;;;;;;;;5075251;28;20032;-85
2022/04/03 13:01:15;;;;;;;3.47;1.10;;;;;;;;;;5077013;28;20025;-87
2022/04/03 13:03:49;;;;;;;2.75;1.23;;;;;;;;;;5068607;28;20054;-87
2022/04/03 13:06:27;;;;;;;;;;;;;;;;;;5092952;28;20025;-88
2022/04/03 13:08:58;;;;;;;3.38;1.23;;;;;;;;;;5087135;28;20065;-86
2022/04/03 13:11:34;;;;;;;3.28;1.00;;;;;;;;;;5082384;28;20095;-86
2022/04/03 13:14:30;;;;;;;2.60;0.80;;;;;;;;;;5097995;28;20092;-86
2022/04/03 13:16:57;;;;;;;5.50;1.05;;;;;;;;;;5084434;28;20081;-86
2022/04/03 13:19:27;;;;;;;9.77;1.58;;;;;;;;;;5102528;28;20020;-85
2022/04/03 13:21:56;;;;;;;1.45;1.02;;;;;;;;;;5067683;28;20350;-84
2022/04/03 13:24:23;;;;;;;2.25;1.00;;;;;;;;;;5101454;28;20179;-85
2022/04/03 13:26:48;;;;;;;2.00;1.00;;;;;;;;;;5085123;28;20027;-87
2022/04/03 13:29:15;;;;;;;2.83;1.23;;;;;;;;;;5085393;28;20032;-86
2022/04/03 13:31:41;;;;;;;2.63;1.05;;;;;;;;;;5067200;28;20540;-88
2022/04/03 13:34:08;;;;;;;6.60;1.10;;;;;;;;;;5083832;28;20024;-89
2022/04/03 13:36:34;;;;;;;3.20;1.00;;;;;;;;;;5066635;28;20028;-89
2022/04/03 13:39:01;;;;;;;4.25;1.42;;;;;;;;;;5067468;28;20032;-89
2022/04/03 13:41:30;;;;;;;4.93;1.00;;;;;;;;;;5067042;28;20032;-88
2022/04/03 13:43:55;;;;;;;4.40;1.27;;;;;;;;;;5068879;28;20509;-87
2022/04/03 13:46:21;;;;;;;4.63;1.55;;;;;;;;;;5067000;28;20032;-83
2022/04/03 13:48:49;;;;;;;6.15;1.20;;;;;;;;;;5085316;28;20027;-84
2022/04/03 13:51:15;;;;;;;5.25;1.15;;;;;;;;;;5068177;28;20042;-84
2022/04/03 13:53:41;;;;;;;5.15;1.05;;;;;;;;;;5048952;28;20023;-82
2022/04/03 13:56:08;;;;;;;2.75;1.10;;;;;;;;;;5100993;28;20039;-84
2022/04/03 13:58:34;;;;;;;3.90;1.02;;;;;;;;;;5100991;28;20023;-83
2022/04/03 14:01:01;;;;;;;5.60;1.08;;;;;;;;;;5085405;28;20028;-83
2022/04/03 14:03:28;;;;;;;6.32;1.00;;;;;;;;;;5066694;28;20114;-83
2022/04/03 14:05:54;;;;;;;3.83;1.10;;;;;;;;;;5067079;28;20028;-83
2022/04/03 14:08:22;;;;;;;3.53;1.10;;;;;;;;;;5066348;28;20039;-84
2022/04/03 14:10:49;;;;;;;4.80;0.88;;;;;;;;;;5054408;28;20084;-83
2022/04/03 14:13:20;;;;;;;6.75;1.05;;;;;;;;;;5085498;28;20067;-83
2022/04/03 14:15:46;;;;;;;3.65;1.30;;;;;;;;;;5084815;28;20061;-84
2022/04/03 14:18:12;;;;;;;4.75;1.00;;;;;;;;;;5086245;28;20016;-84
2022/04/03 14:20:37;;;;;;;3.80;0.90;;;;;;;;;;5087955;28;20105;-85
2022/04/03 14:23:03;;;;;;;2.05;0.88;;;;;;;;;;5081895;28;20081;-81
2022/04/03 14:25:29;;;;;;;3.60;1.10;;;;;;;;;;5084567;28;20023;-84
2022/04/03 14:27:57;;;;;;;1.90;0.90;;;;;;;;;;5067337;28;20394;-81
2022/04/03 14:30:25;;;;;;;2.53;0.90;;;;;;;;;;5085356;28;20085;-84
2022/04/03 14:32:51;;;;;;;3.28;1.08;;;;;;;;;;5102312;28;20024;-83
2022/04/03 14:35:17;;;;;;;1.90;1.20;;;;;;;;;;5081276;28;20467;-85
2022/04/03 14:37:43;;;;;;;1.92;0.75;;;;;;;;;;5083061;28;20038;-86
2022/04/03 14:40:10;;;;;;;1.20;0.82;;;;;;;;;;5082489;28;20422;-84
2022/04/03 14:42:35;;;;;;;1.42;0.95;;;;;;;;;;5064284;28;20126;-84
2022/04/03 14:45:02;;;;;;;1.17;0.90;;;;;;;;;;5081815;28;20055;-83